createdAt,value
2018-11-28T00:00:20.124Z,0.73
2018-11-28T00:02:49.669Z,0.63
2018-11-28T00:05:18.975Z,0.70
2018-11-28T00:07:48.071Z,0.60
2018-11-28T00:10:17.197Z,0.60
2018-11-28T00:12:46.511Z,0.80
2018-11-28T00:15:15.961Z,0.57
2018-11-28T00:17:45.326Z,0.77
2018-11-28T00:20:16.678Z,0.60
2018-11-28T00:22:46.062Z,0.77
2018-11-28T00:25:15.702Z,0.80
2018-11-28T00:27:45.090Z,0.77
2018-11-28T00:30:14.920Z,0.60
2018-11-28T00:32:44.037Z,0.60
2018-11-28T00:35:14.437Z,0.63
2018-11-28T00:37:43.877Z,0.60
2018-11-28T00:40:13.837Z,0.63
2018-11-28T00:42:42.965Z,0.90
2018-11-28T00:45:12.617Z,0.50
2018-11-28T00:47:41.748Z,0.90
2018-11-28T00:50:13.294Z,0.63
2018-11-28T00:52:42.427Z,0.77
2018-11-28T00:55:12.208Z,0.70
2018-11-28T00:57:41.612Z,0.60
2018-11-28T01:00:18.840Z,0.78
2018-11-28T01:02:48.093Z,0.70
2018-11-28T01:05:17.238Z,1.07
2018-11-28T01:07:46.724Z,0.70
2018-11-28T01:10:17.855Z,0.80
2018-11-28T01:12:47.919Z,0.80
2018-11-28T01:15:18.625Z,0.60
2018-11-28T01:17:47.738Z,0.70
2018-11-28T01:20:19.518Z,0.80
2018-11-28T01:22:48.857Z,1.03
2018-11-28T01:25:19.063Z,0.80
2018-11-28T01:27:48.746Z,0.70
2018-11-28T01:30:18.517Z,0.80
2018-11-28T01:32:47.640Z,0.60
2018-11-28T01:35:18.438Z,0.63
2018-11-28T01:37:47.793Z,0.90
2018-11-28T01:40:17.513Z,0.70
2018-11-28T01:42:46.674Z,0.50
2018-11-28T01:45:16.171Z,0.80
2018-11-28T01:47:45.654Z,0.87
2018-11-28T01:50:18.486Z,0.70
2018-11-28T01:52:47.817Z,0.87
2018-11-28T01:55:17.592Z,0.80
2018-11-28T01:57:47.022Z,0.80
2018-11-28T02:00:31.158Z,0.77
2018-11-28T02:03:01.572Z,0.70
2018-11-28T02:05:31.148Z,0.80
2018-11-28T02:08:00.727Z,0.90
2018-11-28T02:10:30.266Z,0.70
2018-11-28T02:12:59.644Z,0.70
2018-11-28T02:15:28.730Z,0.97
2018-11-28T02:17:58.305Z,0.90
2018-11-28T02:20:27.859Z,0.90
2018-11-28T02:22:57.872Z,0.60
2018-11-28T02:25:27.204Z,0.70
2018-11-28T02:27:56.534Z,0.80
2018-11-28T02:30:26.120Z,0.60
2018-11-28T02:32:55.687Z,0.80
2018-11-28T02:35:24.987Z,0.80
2018-11-28T02:37:54.339Z,0.70
2018-11-28T02:40:23.914Z,0.60
2018-11-28T02:42:53.462Z,0.90
2018-11-28T02:45:23.276Z,0.70
2018-11-28T02:47:52.927Z,0.80
2018-11-28T02:50:22.271Z,0.73
2018-11-28T02:52:51.629Z,0.90
2018-11-28T02:55:20.950Z,1.07
2018-11-28T02:57:51.018Z,0.60
2018-11-28T03:00:24.390Z,0.80
2018-11-28T03:02:53.714Z,0.80
2018-11-28T03:05:22.807Z,0.80
2018-11-28T03:07:52.466Z,0.82
2018-11-28T03:10:22.985Z,0.60
2018-11-28T03:12:52.537Z,0.70
2018-11-28T03:15:32.330Z,0.83
2018-11-28T03:18:02.000Z,0.93
2018-11-28T03:20:31.352Z,0.60
2018-11-28T03:23:00.442Z,0.80
2018-11-28T03:25:29.643Z,0.67
2018-11-28T03:27:58.959Z,0.60
2018-11-28T03:30:28.270Z,0.88
2018-11-28T03:32:57.626Z,0.57
2018-11-28T03:35:26.966Z,0.90
2018-11-28T03:37:56.087Z,1.73
2018-11-28T03:40:25.186Z,1.30
2018-11-28T03:42:54.268Z,1.77
2018-11-28T03:45:23.616Z,1.47
2018-11-28T03:47:52.925Z,1.30
2018-11-28T03:50:22.017Z,1.30
2018-11-28T03:52:51.114Z,0.90
2018-11-28T03:55:20.441Z,1.67
2018-11-28T03:57:49.743Z,0.90
2018-11-28T04:00:19.461Z,1.00
2018-11-28T04:02:49.485Z,0.97
2018-11-28T04:05:19.054Z,0.90
2018-11-28T04:07:48.645Z,1.00
2018-11-28T04:10:17.948Z,1.07
2018-11-28T04:12:47.290Z,0.90
2018-11-28T04:15:17.994Z,0.80
2018-11-28T04:17:47.113Z,0.87
2018-11-28T04:20:16.943Z,0.80
2018-11-28T04:22:46.274Z,1.00
2018-11-28T04:25:17.189Z,0.70
2018-11-28T04:27:46.814Z,0.90
2018-11-28T04:30:25.583Z,0.70
2018-11-28T04:32:55.827Z,1.17
2018-11-28T04:35:25.186Z,0.83
2018-11-28T04:37:54.524Z,1.00
2018-11-28T04:40:23.876Z,1.03
2018-11-28T04:42:53.000Z,0.70
2018-11-28T04:45:23.465Z,0.88
2018-11-28T04:47:54.109Z,0.70
2018-11-28T04:50:23.415Z,1.13
2018-11-28T04:52:52.511Z,0.83
2018-11-28T04:55:21.868Z,1.03
2018-11-28T04:57:51.419Z,0.83
2018-11-28T05:00:23.187Z,0.63
2018-11-28T05:02:53.617Z,1.50
2018-11-28T05:05:22.923Z,0.80
2018-11-28T05:07:52.699Z,0.80
2018-11-28T05:10:23.951Z,0.77
2018-11-28T05:12:53.436Z,0.90
2018-11-28T05:15:23.022Z,0.70
2018-11-28T05:17:53.379Z,0.90
2018-11-28T05:20:24.027Z,1.00
2018-11-28T05:22:53.378Z,1.00
2018-11-28T05:25:23.421Z,0.85
2018-11-28T05:27:53.252Z,0.90
2018-11-28T05:30:22.763Z,0.80
2018-11-28T05:32:52.119Z,1.00
2018-11-28T05:35:24.194Z,1.27
2018-11-28T05:37:53.687Z,1.20
2018-11-28T05:40:23.360Z,1.10
2018-11-28T05:42:52.530Z,1.20
2018-11-28T05:45:23.150Z,1.20
2018-11-28T05:47:55.249Z,1.20
2018-11-28T05:50:24.829Z,1.37
2018-11-28T05:52:54.118Z,1.43
2018-11-28T05:55:23.551Z,1.57
2018-11-28T05:57:52.858Z,1.47
2018-11-28T06:00:23.227Z,1.50
2018-11-28T06:02:52.381Z,1.13
2018-11-28T06:05:21.475Z,1.60
2018-11-28T06:07:50.553Z,1.50
2018-11-28T06:10:19.968Z,1.40
2018-11-28T06:12:49.292Z,1.63
2018-11-28T06:15:18.420Z,1.65
2018-11-28T06:17:47.744Z,1.30
2018-11-28T06:20:17.073Z,1.30
2018-11-28T06:22:46.169Z,1.50
2018-11-28T06:25:16.814Z,1.27
2018-11-28T06:27:45.110Z,1.47
2018-11-28T06:30:15.713Z,1.67
2018-11-28T06:32:51.003Z,1.30
2018-11-28T06:35:14.655Z,1.50
2018-11-28T06:37:43.815Z,1.67
2018-11-28T06:40:14.139Z,1.80
2018-11-28T06:42:44.663Z,1.50
2018-11-28T06:45:15.363Z,1.47
2018-11-28T06:47:44.758Z,1.77
2018-11-28T06:50:15.575Z,1.80
2018-11-28T06:52:45.408Z,1.80
2018-11-28T06:55:16.089Z,1.63
2018-11-28T06:57:47.395Z,1.77
2018-11-28T07:00:17.997Z,1.70
2018-11-28T07:02:47.562Z,1.80
2018-11-28T07:05:16.661Z,1.77
2018-11-28T07:07:45.770Z,2.10
2018-11-28T07:10:16.162Z,1.80
2018-11-28T07:12:45.512Z,2.00
2018-11-28T07:15:15.599Z,3.03
2018-11-28T07:17:44.671Z,2.43
2018-11-28T07:20:15.227Z,2.60
2018-11-28T07:22:44.550Z,2.80
2018-11-28T07:25:14.333Z,2.77
2018-11-28T07:27:45.312Z,2.42
2018-11-28T07:30:17.591Z,4.47
2018-11-28T07:32:47.725Z,8.23
2018-11-28T07:35:17.091Z,11.13
2018-11-28T07:37:46.662Z,13.22
2018-11-28T07:40:18.700Z,13.77
2018-11-28T07:42:52.928Z,12.23
2018-11-28T07:45:22.305Z,10.17
2018-11-28T07:47:51.426Z,10.73
2018-11-28T07:50:20.842Z,9.07
2018-11-28T07:52:50.203Z,8.48
2018-11-28T07:55:19.566Z,9.67
2018-11-28T07:57:48.899Z,7.80
2018-11-28T08:00:18.455Z,7.47
2018-11-28T08:02:47.799Z,9.40
2018-11-28T08:05:17.126Z,11.03
2018-11-28T08:07:46.236Z,9.23
2018-11-28T08:10:21.086Z,8.77
2018-11-28T08:12:57.883Z,7.97
2018-11-28T08:15:27.254Z,7.75
2018-11-28T08:17:56.714Z,5.97
2018-11-28T08:20:25.858Z,6.50
2018-11-28T08:22:54.988Z,5.67
2018-11-28T08:25:27.704Z,8.40
2018-11-28T08:27:53.773Z,8.90
2018-11-28T08:30:24.206Z,14.93
2018-11-28T08:32:53.997Z,11.80
2018-11-28T08:35:23.186Z,10.23
2018-11-28T08:37:52.542Z,7.97
2018-11-28T08:40:24.061Z,6.53
2018-11-28T08:42:54.003Z,6.23
2018-11-28T08:45:23.334Z,5.63
2018-11-28T08:47:53.194Z,5.83
2018-11-28T08:50:25.559Z,5.90
2018-11-28T08:52:54.037Z,5.75
2018-11-28T08:55:23.416Z,6.00
2018-11-28T08:57:52.791Z,5.40
2018-11-28T09:00:22.930Z,5.10
2018-11-28T09:02:53.751Z,5.10
2018-11-28T09:05:23.076Z,5.43
2018-11-28T09:07:52.395Z,5.22
2018-11-28T09:10:22.000Z,4.97
2018-11-28T09:12:51.547Z,4.73
2018-11-28T09:15:23.293Z,6.30
2018-11-28T09:17:52.856Z,5.60
2018-11-28T09:20:22.188Z,5.17
2018-11-28T09:22:51.518Z,5.13
2018-11-28T09:25:20.944Z,4.30
2018-11-28T09:27:52.720Z,4.70
2018-11-28T09:30:21.945Z,4.90
2018-11-28T09:32:51.103Z,4.53
2018-11-28T09:35:20.275Z,3.85
2018-11-28T09:37:49.633Z,5.10
2018-11-28T09:40:25.985Z,5.40
2018-11-28T09:42:55.597Z,5.10
2018-11-28T09:45:24.910Z,4.97
2018-11-28T09:47:54.230Z,3.72
2018-11-28T09:50:23.758Z,4.17
2018-11-28T09:52:52.886Z,4.27
2018-11-28T09:55:22.687Z,4.50
2018-11-28T09:57:51.837Z,3.80
2018-11-28T10:00:21.637Z,4.00
2018-11-28T10:02:52.302Z,4.17
2018-11-28T10:05:22.371Z,4.10
2018-11-28T10:07:51.475Z,3.30
2018-11-28T10:10:20.786Z,3.60
2018-11-28T10:12:50.126Z,3.80
2018-11-28T10:15:20.707Z,3.47
2018-11-28T10:17:50.021Z,3.07
2018-11-28T10:20:19.251Z,2.80
2018-11-28T10:22:49.019Z,3.23
2018-11-28T10:25:18.601Z,2.53
2018-11-28T10:27:49.598Z,2.80
2018-11-28T10:30:20.325Z,2.60
2018-11-28T10:32:50.373Z,3.23
2018-11-28T10:35:19.711Z,2.67
2018-11-28T10:37:49.066Z,2.70
2018-11-28T10:40:21.614Z,2.80
2018-11-28T10:42:52.306Z,2.93
2018-11-28T10:45:21.930Z,3.00
2018-11-28T10:47:51.057Z,2.80
2018-11-28T10:50:20.167Z,3.40
2018-11-28T10:52:49.481Z,3.57
2018-11-28T10:55:21.120Z,2.90
2018-11-28T10:57:50.471Z,2.90
2018-11-28T11:00:34.256Z,2.20
2018-11-28T11:03:10.175Z,3.47
2018-11-28T11:05:45.183Z,2.90
2018-11-28T11:08:19.957Z,2.83
2018-11-28T11:10:54.654Z,3.80
2018-11-28T11:13:29.366Z,2.80
2018-11-28T11:15:59.494Z,2.67
2018-11-28T11:18:29.416Z,2.53
2018-11-28T11:20:58.902Z,2.63
2018-11-28T11:23:28.467Z,3.00
2018-11-28T11:25:57.768Z,2.73
2018-11-28T11:28:27.105Z,1.90
2018-11-28T11:30:56.655Z,2.70
2018-11-28T11:33:25.982Z,3.53
2018-11-28T11:35:55.085Z,4.73
2018-11-28T11:38:24.429Z,4.43
2018-11-28T11:40:53.981Z,4.50
2018-11-28T11:43:23.290Z,4.80
2018-11-28T11:45:52.383Z,3.93
2018-11-28T11:48:21.505Z,4.00
2018-11-28T11:50:50.838Z,5.10
2018-11-28T11:53:20.174Z,4.30
2018-11-28T11:55:50.150Z,5.20
2018-11-28T11:58:19.547Z,4.10
2018-11-28T12:00:49.338Z,4.90
2018-11-28T12:03:18.993Z,4.85
2018-11-28T12:05:58.953Z,4.60
2018-11-28T12:08:28.750Z,4.85
2018-11-28T12:10:58.097Z,5.10
2018-11-28T12:13:27.413Z,4.40
2018-11-28T12:15:56.527Z,4.50
2018-11-28T12:18:25.871Z,5.97
2018-11-28T12:20:57.454Z,6.33
2018-11-28T12:23:26.779Z,5.87
2018-11-28T12:25:55.914Z,5.67
2018-11-28T12:28:25.001Z,4.80
2018-11-28T12:30:54.163Z,4.67
2018-11-28T12:33:23.254Z,5.00
2018-11-28T12:35:52.354Z,5.22
2018-11-28T12:38:21.538Z,4.93
2018-11-28T12:40:50.939Z,4.53
2018-11-28T12:43:20.281Z,4.67
2018-11-28T12:45:49.791Z,5.37
2018-11-28T12:48:18.926Z,5.33
2018-11-28T12:50:48.271Z,4.40
2018-11-28T12:53:17.878Z,5.00
2018-11-28T12:55:47.191Z,5.55
2018-11-28T12:58:16.948Z,4.97
2018-11-28T13:00:46.209Z,3.93
2018-11-28T13:03:15.954Z,4.40
2018-11-28T13:05:45.038Z,4.57
2018-11-28T13:08:14.792Z,5.53
2018-11-28T13:10:43.926Z,4.40
2018-11-28T13:13:13.268Z,4.20
2018-11-28T13:15:42.891Z,5.22
2018-11-28T13:18:12.238Z,4.03
2018-11-28T13:20:41.668Z,5.43
2018-11-28T13:23:11.744Z,4.93
2018-11-28T13:25:40.908Z,4.23
2018-11-28T13:28:10.003Z,5.83
2018-11-28T13:30:39.570Z,5.73
2018-11-28T13:33:09.263Z,5.47
2018-11-28T13:35:38.826Z,6.37
2018-11-28T13:38:09.723Z,5.40
2018-11-28T13:40:38.843Z,6.30
2018-11-28T13:43:07.993Z,6.20
2018-11-28T13:45:38.228Z,5.57
2018-11-28T13:48:07.344Z,6.47
2018-11-28T13:50:36.714Z,6.20
2018-11-28T13:53:07.370Z,6.60
2018-11-28T13:55:42.059Z,6.50
2018-11-28T13:58:10.134Z,6.13
2018-11-28T14:00:39.295Z,8.10
2018-11-28T14:03:08.417Z,6.60
2018-11-28T14:05:37.508Z,6.47
2018-11-28T14:08:06.608Z,6.50
2018-11-28T14:10:35.736Z,7.10
2018-11-28T14:13:05.143Z,6.93
2018-11-28T14:15:34.501Z,6.57
2018-11-28T14:18:10.046Z,7.87
2018-11-28T14:20:39.400Z,8.00
2018-11-28T14:23:08.730Z,7.37
2018-11-28T14:25:38.481Z,6.90
2018-11-28T14:28:08.042Z,7.50
2018-11-28T14:30:38.113Z,6.87
2018-11-28T14:33:07.662Z,6.20
2018-11-28T14:35:36.982Z,6.83
2018-11-28T14:38:06.083Z,7.37
2018-11-28T14:40:35.308Z,7.40
2018-11-28T14:43:04.434Z,7.60
2018-11-28T14:45:33.778Z,6.50
2018-11-28T14:48:03.087Z,6.85
2018-11-28T14:50:32.188Z,8.90
2018-11-28T14:53:03.115Z,7.03
2018-11-28T14:55:35.667Z,8.07
2018-11-28T14:58:05.454Z,8.28
2018-11-28T15:00:34.571Z,7.57
2018-11-28T15:03:07.512Z,7.83
2018-11-28T15:05:44.576Z,6.77
2018-11-28T15:08:15.249Z,8.17
2018-11-28T15:10:47.707Z,8.43
2018-11-28T15:13:17.038Z,7.37
2018-11-28T15:15:46.345Z,7.93
2018-11-28T15:18:15.679Z,8.37
2018-11-28T15:20:45.024Z,7.83
2018-11-28T15:23:14.385Z,7.47
2018-11-28T15:25:43.935Z,7.90
2018-11-28T15:28:13.258Z,7.27
2018-11-28T15:30:42.421Z,6.77
2018-11-28T15:33:11.764Z,7.77
2018-11-28T15:35:41.362Z,7.67
2018-11-28T15:38:10.921Z,8.20
2018-11-28T15:40:40.490Z,7.00
2018-11-28T15:43:09.849Z,7.07
2018-11-28T15:45:39.257Z,8.13
2018-11-28T15:48:08.567Z,7.43
2018-11-28T15:50:37.943Z,7.20
2018-11-28T15:53:07.481Z,7.30
2018-11-28T15:55:36.828Z,9.20
2018-11-28T15:58:06.178Z,8.40
2018-11-28T16:00:35.793Z,8.30
2018-11-28T16:03:06.676Z,8.23
2018-11-28T16:05:36.028Z,9.30
2018-11-28T16:08:05.146Z,9.37
2018-11-28T16:10:42.768Z,10.23
2018-11-28T16:13:14.667Z,9.53
2018-11-28T16:15:44.798Z,9.53
2018-11-28T16:18:14.168Z,9.60
2018-11-28T16:20:43.514Z,9.40
2018-11-28T16:23:12.872Z,9.67
2018-11-28T16:25:42.711Z,10.00
2018-11-28T16:28:12.571Z,10.40
2018-11-28T16:30:41.578Z,9.77
2018-11-28T16:33:10.901Z,10.13
2018-11-28T16:35:40.496Z,10.53
2018-11-28T16:38:09.864Z,8.73
2018-11-28T16:40:39.180Z,9.27
2018-11-28T16:43:08.279Z,9.93
2018-11-28T16:45:37.639Z,8.67
2018-11-28T16:48:07.187Z,9.50
2018-11-28T16:50:36.513Z,9.50
2018-11-28T16:53:06.296Z,10.53
2018-11-28T16:55:36.167Z,10.88
2018-11-28T16:58:06.543Z,10.33
2018-11-28T17:00:38.077Z,9.00
2018-11-28T17:03:07.648Z,8.78
2018-11-28T17:05:37.062Z,8.73
2018-11-28T17:08:08.567Z,9.30
2018-11-28T17:10:38.138Z,9.07
2018-11-28T17:13:07.463Z,9.38
2018-11-28T17:15:36.814Z,7.90
2018-11-28T17:18:06.662Z,9.67
2018-11-28T17:20:37.354Z,9.80
2018-11-28T17:23:07.105Z,9.50
2018-11-28T17:25:36.734Z,8.70
2018-11-28T17:28:06.618Z,8.60
2018-11-28T17:30:36.096Z,8.53
2018-11-28T17:33:05.867Z,9.13
2018-11-28T17:35:35.432Z,8.60
2018-11-28T17:38:06.135Z,8.50
2018-11-28T17:40:35.222Z,9.03
2018-11-28T17:43:04.362Z,8.40
2018-11-28T17:45:33.719Z,8.43
2018-11-28T17:48:03.047Z,9.13
2018-11-28T17:50:32.607Z,7.90
2018-11-28T17:53:02.599Z,8.83
2018-11-28T17:55:33.153Z,7.80
2018-11-28T17:58:02.706Z,8.88
2018-11-28T18:00:31.854Z,8.63
2018-11-28T18:03:01.527Z,8.30
2018-11-28T18:05:30.886Z,6.07
2018-11-28T18:08:00.257Z,7.53
2018-11-28T18:10:29.363Z,8.90
2018-11-28T18:13:02.173Z,7.17
2018-11-28T18:15:31.295Z,9.08
2018-11-28T18:18:00.649Z,7.47
2018-11-28T18:20:30.211Z,8.30
2018-11-28T18:22:59.518Z,6.85
2018-11-28T18:25:30.372Z,8.57
2018-11-28T18:27:59.788Z,6.90
2018-11-28T18:30:29.516Z,7.47
2018-11-28T18:32:58.626Z,7.90
2018-11-28T18:35:27.959Z,7.00
2018-11-28T18:37:57.296Z,7.20
2018-11-28T18:40:26.388Z,7.40
2018-11-28T18:42:55.479Z,6.53
2018-11-28T18:45:25.268Z,7.47
2018-11-28T18:47:54.369Z,7.30
2018-11-28T18:50:23.730Z,6.17
2018-11-28T18:52:53.332Z,6.85
2018-11-28T18:55:22.646Z,7.60
2018-11-28T18:57:53.727Z,6.70
2018-11-28T19:00:23.799Z,6.00
2018-11-28T19:02:53.503Z,7.00
2018-11-28T19:05:22.622Z,6.73
2018-11-28T19:07:51.960Z,6.50
2018-11-28T19:10:26.279Z,6.67
2018-11-28T19:12:52.936Z,6.80
2018-11-28T19:15:24.713Z,6.77
2018-11-28T19:17:54.533Z,7.00
2018-11-28T19:20:23.682Z,6.90
2018-11-28T19:22:54.407Z,6.00
2018-11-28T19:25:27.266Z,6.55
2018-11-28T19:27:56.642Z,5.90
2018-11-28T19:30:32.171Z,5.33
2018-11-28T19:33:01.520Z,7.20
2018-11-28T19:35:30.645Z,6.33
2018-11-28T19:38:00.024Z,6.30
2018-11-28T19:41:04.419Z,6.50
2018-11-28T19:43:34.017Z,6.47
2018-11-28T19:46:03.612Z,6.00
2018-11-28T19:48:32.952Z,6.75
2018-11-28T19:51:02.268Z,6.50
2018-11-28T19:53:32.693Z,7.07
2018-11-28T19:56:02.020Z,5.80
2018-11-28T19:58:31.331Z,5.97
2018-11-28T20:01:00.681Z,6.30
2018-11-28T20:03:30.011Z,5.35
2018-11-28T20:05:59.113Z,6.80
2018-11-28T20:08:28.217Z,5.90
2018-11-28T20:10:57.347Z,6.37
2018-11-28T20:13:26.707Z,7.00
2018-11-28T20:15:56.260Z,6.17
2018-11-28T20:18:25.566Z,5.53
2018-11-28T20:20:54.925Z,6.70
2018-11-28T20:23:24.501Z,6.60
2018-11-28T20:25:53.839Z,5.37
2018-11-28T20:28:23.230Z,6.60
2018-11-28T20:30:52.859Z,5.60
2018-11-28T20:33:22.188Z,5.87
2018-11-28T20:35:51.512Z,6.20
2018-11-28T20:38:25.064Z,5.37
2018-11-28T20:40:54.381Z,6.17
2018-11-28T20:43:23.472Z,6.10
2018-11-28T20:45:52.804Z,5.57
2018-11-28T20:48:22.351Z,5.58
2018-11-28T20:50:52.467Z,6.60
2018-11-28T20:53:22.378Z,6.83
2018-11-28T20:55:51.956Z,6.20
2018-11-28T20:58:21.290Z,7.67
2018-11-28T21:00:50.423Z,6.45
2018-11-28T21:03:19.835Z,6.70
2018-11-28T21:05:49.137Z,6.83
2018-11-28T21:08:18.514Z,7.07
2018-11-28T21:10:47.825Z,6.17
2018-11-28T21:13:17.164Z,6.50
2018-11-28T21:15:46.740Z,6.07
2018-11-28T21:18:16.065Z,6.73
2018-11-28T21:20:46.217Z,6.73
2018-11-28T21:23:16.303Z,6.20
2018-11-28T21:25:45.394Z,6.63
2018-11-28T21:28:14.769Z,8.20
2018-11-28T21:30:44.078Z,8.57
2018-11-28T21:33:14.271Z,11.00
2018-11-28T21:35:46.961Z,12.57
2018-11-28T21:38:16.295Z,11.90
2018-11-28T21:40:45.419Z,12.37
2018-11-28T21:43:14.529Z,11.57
2018-11-28T21:45:43.961Z,11.10
2018-11-28T21:48:13.362Z,13.20
2018-11-28T21:50:42.482Z,10.47
2018-11-28T21:53:11.844Z,10.80
2018-11-28T21:55:41.159Z,12.53
2018-11-28T21:58:10.546Z,11.85
2018-11-28T22:00:40.106Z,12.23
2018-11-28T22:03:09.674Z,11.93
2018-11-28T22:05:38.997Z,11.27
2018-11-28T22:08:08.364Z,11.97
2018-11-28T22:10:37.710Z,10.70
2018-11-28T22:13:07.082Z,10.53
2018-11-28T22:15:36.430Z,10.80
2018-11-28T22:18:05.569Z,11.60
2018-11-28T22:20:34.719Z,10.97
2018-11-28T22:23:03.839Z,10.13
2018-11-28T22:25:33.195Z,10.10
2018-11-28T22:28:02.766Z,10.07
2018-11-28T22:30:33.164Z,10.03
2018-11-28T22:33:02.506Z,8.33
2018-11-28T22:35:31.844Z,10.45
2018-11-28T22:38:01.419Z,10.00
2018-11-28T22:40:31.053Z,9.67
2018-11-28T22:43:00.167Z,8.93
2018-11-28T22:45:31.343Z,8.78
2018-11-28T22:48:00.678Z,9.93
2018-11-28T22:50:29.862Z,9.53
2018-11-28T22:52:58.981Z,9.23
2018-11-28T22:55:28.305Z,8.43
2018-11-28T22:57:57.665Z,8.50
2018-11-28T23:00:32.432Z,8.77
2018-11-28T23:03:03.057Z,9.13
2018-11-28T23:05:34.538Z,8.20
2018-11-28T23:08:05.531Z,7.63
2018-11-28T23:10:35.083Z,7.47
2018-11-28T23:13:04.792Z,8.27
2018-11-28T23:15:34.194Z,8.60
2018-11-28T23:18:03.557Z,7.58
2018-11-28T23:20:33.957Z,7.00
2018-11-28T23:23:03.524Z,7.70
2018-11-28T23:25:33.108Z,7.77
2018-11-28T23:28:02.667Z,7.53
2018-11-28T23:30:32.000Z,8.17
2018-11-28T23:33:01.487Z,7.33
2018-11-28T23:35:31.214Z,7.57
2018-11-28T23:38:00.788Z,7.60
2018-11-28T23:40:30.104Z,8.20
2018-11-28T23:42:59.850Z,8.47
2018-11-28T23:45:29.219Z,7.60
2018-11-28T23:47:58.344Z,8.40
2018-11-28T23:50:27.687Z,6.62
2018-11-28T23:52:57.238Z,7.73
2018-11-28T23:55:29.016Z,6.77
2018-11-28T23:57:58.581Z,7.17
